sensor_id;sensor_type;location;lat;lon;timestamp;temperature;humidity
27072;DHT22;14613;46.308;25.288;2023-05-29T00:00:13;13.70;80.60
27072;DHT22;14613;46.308;25.288;2023-05-29T00:02:39;13.70;80.70
27072;DHT22;14613;46.308;25.288;2023-05-29T00:05:13;13.60;80.90
27072;DHT22;14613;46.308;25.288;2023-05-29T00:07:40;13.50;81.20
27072;DHT22;14613;46.308;25.288;2023-05-29T00:10:07;13.40;81.40
27072;DHT22;14613;46.308;25.288;2023-05-29T00:12:33;13.40;81.50
27072;DHT22;14613;46.308;25.288;2023-05-29T00:14:59;13.40;81.60
27072;DHT22;14613;46.308;25.288;2023-05-29T00:17:25;13.40;81.50
27072;DHT22;14613;46.308;25.288;2023-05-29T00:19:51;13.40;81.50
27072;DHT22;14613;46.308;25.288;2023-05-29T00:22:16;13.40;81.60
27072;DHT22;14613;46.308;25.288;2023-05-29T00:24:42;13.40;81.60
27072;DHT22;14613;46.308;25.288;2023-05-29T00:27:08;13.40;81.70
27072;DHT22;14613;46.308;25.288;2023-05-29T00:29:35;13.30;81.60
27072;DHT22;14613;46.308;25.288;2023-05-29T00:32:01;13.30;81.50
27072;DHT22;14613;46.308;25.288;2023-05-29T00:34:27;13.30;81.50
27072;DHT22;14613;46.308;25.288;2023-05-29T00:36:53;13.30;81.50
27072;DHT22;14613;46.308;25.288;2023-05-29T00:39:21;13.30;81.50
27072;DHT22;14613;46.308;25.288;2023-05-29T00:41:47;13.20;81.50
27072;DHT22;14613;46.308;25.288;2023-05-29T00:44:20;13.20;81.60
27072;DHT22;14613;46.308;25.288;2023-05-29T00:46:49;13.10;81.60
27072;DHT22;14613;46.308;25.288;2023-05-29T00:49:16;13.10;81.90
27072;DHT22;14613;46.308;25.288;2023-05-29T00:51:42;13.00;82.00
27072;DHT22;14613;46.308;25.288;2023-05-29T00:54:11;13.00;82.10
27072;DHT22;14613;46.308;25.288;2023-05-29T00:56:41;13.00;82.10
27072;DHT22;14613;46.308;25.288;2023-05-29T00:59:11;13.00;82.10
27072;DHT22;14613;46.308;25.288;2023-05-29T01:01:38;13.00;82.10
27072;DHT22;14613;46.308;25.288;2023-05-29T01:04:05;12.90;82.10
27072;DHT22;14613;46.308;25.288;2023-05-29T01:06:32;12.90;82.20
27072;DHT22;14613;46.308;25.288;2023-05-29T01:08:58;12.90;82.40
27072;DHT22;14613;46.308;25.288;2023-05-29T01:14:13;12.80;82.60
27072;DHT22;14613;46.308;25.288;2023-05-29T01:17:02;12.70;82.70
27072;DHT22;14613;46.308;25.288;2023-05-29T01:22:54;12.70;82.90
27072;DHT22;14613;46.308;25.288;2023-05-29T01:28:26;12.70;82.70
27072;DHT22;14613;46.308;25.288;2023-05-29T01:30:54;12.70;82.50
27072;DHT22;14613;46.308;25.288;2023-05-29T01:33:20;12.70;82.50
27072;DHT22;14613;46.308;25.288;2023-05-29T01:35:45;12.70;82.40
27072;DHT22;14613;46.308;25.288;2023-05-29T01:38:11;12.70;82.40
27072;DHT22;14613;46.308;25.288;2023-05-29T01:40:37;12.60;82.50
27072;DHT22;14613;46.308;25.288;2023-05-29T01:43:03;12.60;82.50
27072;DHT22;14613;46.308;25.288;2023-05-29T01:45:30;12.60;82.70
27072;DHT22;14613;46.308;25.288;2023-05-29T01:47:56;12.50;82.70
27072;DHT22;14613;46.308;25.288;2023-05-29T01:50:23;12.50;82.80
27072;DHT22;14613;46.308;25.288;2023-05-29T01:52:50;12.40;83.00
27072;DHT22;14613;46.308;25.288;2023-05-29T01:55:16;12.30;83.20
27072;DHT22;14613;46.308;25.288;2023-05-29T01:57:41;12.30;83.40
27072;DHT22;14613;46.308;25.288;2023-05-29T02:00:09;12.30;83.40
27072;DHT22;14613;46.308;25.288;2023-05-29T02:02:37;12.30;83.40
27072;DHT22;14613;46.308;25.288;2023-05-29T02:05:05;12.30;83.30
27072;DHT22;14613;46.308;25.288;2023-05-29T02:07:31;12.30;83.30
27072;DHT22;14613;46.308;25.288;2023-05-29T02:09:56;12.30;83.10
27072;DHT22;14613;46.308;25.288;2023-05-29T02:12:22;12.30;83.20
27072;DHT22;14613;46.308;25.288;2023-05-29T02:14:48;12.30;83.20
27072;DHT22;14613;46.308;25.288;2023-05-29T02:17:14;12.30;83.10
27072;DHT22;14613;46.308;25.288;2023-05-29T02:19:40;12.20;83.20
27072;DHT22;14613;46.308;25.288;2023-05-29T02:22:07;12.10;83.40
27072;DHT22;14613;46.308;25.288;2023-05-29T02:24:33;12.00;83.70
27072;DHT22;14613;46.308;25.288;2023-05-29T02:26:58;12.00;83.80
27072;DHT22;14613;46.308;25.288;2023-05-29T02:29:24;12.00;83.90
27072;DHT22;14613;46.308;25.288;2023-05-29T02:31:50;12.10;83.90
27072;DHT22;14613;46.308;25.288;2023-05-29T02:34:16;12.10;83.80
27072;DHT22;14613;46.308;25.288;2023-05-29T02:36:41;12.10;83.70
27072;DHT22;14613;46.308;25.288;2023-05-29T02:39:07;12.10;83.60
27072;DHT22;14613;46.308;25.288;2023-05-29T02:41:33;12.20;83.60
27072;DHT22;14613;46.308;25.288;2023-05-29T02:43:58;12.20;83.60
27072;DHT22;14613;46.308;25.288;2023-05-29T02:46:25;12.10;83.70
27072;DHT22;14613;46.308;25.288;2023-05-29T02:48:50;12.10;83.80
27072;DHT22;14613;46.308;25.288;2023-05-29T02:51:16;12.10;83.90
27072;DHT22;14613;46.308;25.288;2023-05-29T02:53:42;12.10;84.00
27072;DHT22;14613;46.308;25.288;2023-05-29T02:56:08;12.10;84.00
27072;DHT22;14613;46.308;25.288;2023-05-29T02:58:34;12.00;84.10
27072;DHT22;14613;46.308;25.288;2023-05-29T03:01:01;12.10;84.30
27072;DHT22;14613;46.308;25.288;2023-05-29T03:03:29;12.10;84.40
27072;DHT22;14613;46.308;25.288;2023-05-29T03:05:55;12.10;84.60
27072;DHT22;14613;46.308;25.288;2023-05-29T03:08:21;12.20;84.80
27072;DHT22;14613;46.308;25.288;2023-05-29T03:10:47;12.40;85.00
27072;DHT22;14613;46.308;25.288;2023-05-29T03:13:13;12.50;85.20
27072;DHT22;14613;46.308;25.288;2023-05-29T03:15:39;12.70;85.50
27072;DHT22;14613;46.308;25.288;2023-05-29T03:18:04;12.90;85.60
27072;DHT22;14613;46.308;25.288;2023-05-29T03:20:30;13.10;85.60
27072;DHT22;14613;46.308;25.288;2023-05-29T03:22:56;13.40;85.60
27072;DHT22;14613;46.308;25.288;2023-05-29T03:25:22;13.60;85.30
27072;DHT22;14613;46.308;25.288;2023-05-29T03:27:48;13.80;85.10
27072;DHT22;14613;46.308;25.288;2023-05-29T03:30:13;14.00;84.90
27072;DHT22;14613;46.308;25.288;2023-05-29T03:32:39;14.30;84.70
27072;DHT22;14613;46.308;25.288;2023-05-29T03:35:06;14.50;84.40
27072;DHT22;14613;46.308;25.288;2023-05-29T03:37:32;14.80;84.40
27072;DHT22;14613;46.308;25.288;2023-05-29T03:39:57;15.10;84.30
27072;DHT22;14613;46.308;25.288;2023-05-29T03:42:23;15.50;83.90
27072;DHT22;14613;46.308;25.288;2023-05-29T03:44:49;15.80;83.40
27072;DHT22;14613;46.308;25.288;2023-05-29T03:47:14;16.00;83.00
27072;DHT22;14613;46.308;25.288;2023-05-29T03:49:40;16.30;82.40
27072;DHT22;14613;46.308;25.288;2023-05-29T03:52:06;16.60;82.00
27072;DHT22;14613;46.308;25.288;2023-05-29T03:54:32;16.90;81.40
27072;DHT22;14613;46.308;25.288;2023-05-29T03:56:58;17.10;80.80
27072;DHT22;14613;46.308;25.288;2023-05-29T03:59:24;17.40;80.40
27072;DHT22;14613;46.308;25.288;2023-05-29T04:01:49;17.70;80.10
27072;DHT22;14613;46.308;25.288;2023-05-29T04:04:15;18.00;79.70
27072;DHT22;14613;46.308;25.288;2023-05-29T04:06:41;18.30;79.30
27072;DHT22;14613;46.308;25.288;2023-05-29T04:09:07;18.70;78.80
27072;DHT22;14613;46.308;25.288;2023-05-29T04:11:34;19.10;78.20
27072;DHT22;14613;46.308;25.288;2023-05-29T04:14:00;19.40;77.40
27072;DHT22;14613;46.308;25.288;2023-05-29T04:16:27;19.70;76.70
27072;DHT22;14613;46.308;25.288;2023-05-29T04:18:56;20.10;76.20
27072;DHT22;14613;46.308;25.288;2023-05-29T04:21:22;20.40;75.60
27072;DHT22;14613;46.308;25.288;2023-05-29T04:23:48;20.70;75.10
27072;DHT22;14613;46.308;25.288;2023-05-29T04:26:13;21.00;74.50
27072;DHT22;14613;46.308;25.288;2023-05-29T04:28:39;21.40;73.90
27072;DHT22;14613;46.308;25.288;2023-05-29T04:31:05;21.60;72.90
27072;DHT22;14613;46.308;25.288;2023-05-29T04:33:32;21.90;72.10
27072;DHT22;14613;46.308;25.288;2023-05-29T04:35:58;22.10;71.50
27072;DHT22;14613;46.308;25.288;2023-05-29T04:38:26;22.40;70.80
27072;DHT22;14613;46.308;25.288;2023-05-29T04:40:53;22.40;69.90
27072;DHT22;14613;46.308;25.288;2023-05-29T04:43:23;22.30;69.50
27072;DHT22;14613;46.308;25.288;2023-05-29T04:45:55;22.20;69.80
27072;DHT22;14613;46.308;25.288;2023-05-29T04:48:21;22.40;70.20
27072;DHT22;14613;46.308;25.288;2023-05-29T04:50:47;22.60;69.90
27072;DHT22;14613;46.308;25.288;2023-05-29T04:53:14;22.90;69.40
27072;DHT22;14613;46.308;25.288;2023-05-29T04:55:41;23.20;68.70
27072;DHT22;14613;46.308;25.288;2023-05-29T04:58:07;23.50;67.80
27072;DHT22;14613;46.308;25.288;2023-05-29T05:00:33;23.70;67.40
27072;DHT22;14613;46.308;25.288;2023-05-29T05:02:59;24.00;67.10
27072;DHT22;14613;46.308;25.288;2023-05-29T05:05:24;24.30;66.40
27072;DHT22;14613;46.308;25.288;2023-05-29T05:07:50;24.60;65.70
27072;DHT22;14613;46.308;25.288;2023-05-29T05:10:16;24.90;65.40
27072;DHT22;14613;46.308;25.288;2023-05-29T05:12:41;25.10;64.80
27072;DHT22;14613;46.308;25.288;2023-05-29T05:15:08;25.30;64.20
27072;DHT22;14613;46.308;25.288;2023-05-29T05:17:34;25.50;63.50
27072;DHT22;14613;46.308;25.288;2023-05-29T05:19:59;25.70;63.40
27072;DHT22;14613;46.308;25.288;2023-05-29T05:22:25;25.90;62.60
27072;DHT22;14613;46.308;25.288;2023-05-29T05:24:51;26.10;61.70
27072;DHT22;14613;46.308;25.288;2023-05-29T05:27:19;26.10;61.20
27072;DHT22;14613;46.308;25.288;2023-05-29T05:29:44;26.20;60.80
27072;DHT22;14613;46.308;25.288;2023-05-29T05:32:10;26.30;60.50
27072;DHT22;14613;46.308;25.288;2023-05-29T05:34:36;26.50;60.20
27072;DHT22;14613;46.308;25.288;2023-05-29T05:37:02;26.80;60.20
27072;DHT22;14613;46.308;25.288;2023-05-29T05:39:28;27.00;59.90
27072;DHT22;14613;46.308;25.288;2023-05-29T05:41:54;27.30;59.50
27072;DHT22;14613;46.308;25.288;2023-05-29T05:44:19;27.60;59.20
27072;DHT22;14613;46.308;25.288;2023-05-29T05:46:45;27.90;58.90
27072;DHT22;14613;46.308;25.288;2023-05-29T05:49:11;28.20;58.30
27072;DHT22;14613;46.308;25.288;2023-05-29T05:51:37;28.30;57.50
27072;DHT22;14613;46.308;25.288;2023-05-29T05:54:02;28.30;57.10
27072;DHT22;14613;46.308;25.288;2023-05-29T05:56:28;28.40;57.10
27072;DHT22;14613;46.308;25.288;2023-05-29T05:58:54;28.60;56.60
27072;DHT22;14613;46.308;25.288;2023-05-29T06:01:20;28.70;56.10
27072;DHT22;14613;46.308;25.288;2023-05-29T06:03:46;28.80;55.70
27072;DHT22;14613;46.308;25.288;2023-05-29T06:06:11;28.80;55.40
27072;DHT22;14613;46.308;25.288;2023-05-29T06:08:37;28.70;55.10
27072;DHT22;14613;46.308;25.288;2023-05-29T06:11:03;28.70;55.00
27072;DHT22;14613;46.308;25.288;2023-05-29T06:13:29;28.80;54.90
27072;DHT22;14613;46.308;25.288;2023-05-29T06:15:55;28.90;54.80
27072;DHT22;14613;46.308;25.288;2023-05-29T06:18:21;29.00;54.50
27072;DHT22;14613;46.308;25.288;2023-05-29T06:20:47;29.00;54.10
27072;DHT22;14613;46.308;25.288;2023-05-29T06:23:13;29.10;53.90
27072;DHT22;14613;46.308;25.288;2023-05-29T06:25:38;29.10;53.90
27072;DHT22;14613;46.308;25.288;2023-05-29T06:28:04;29.30;53.90
27072;DHT22;14613;46.308;25.288;2023-05-29T06:30:33;29.60;53.70
27072;DHT22;14613;46.308;25.288;2023-05-29T06:32:58;29.80;53.10
27072;DHT22;14613;46.308;25.288;2023-05-29T06:35:24;29.90;52.70
27072;DHT22;14613;46.308;25.288;2023-05-29T06:37:50;30.00;52.40
27072;DHT22;14613;46.308;25.288;2023-05-29T06:40:16;30.20;52.60
27072;DHT22;14613;46.308;25.288;2023-05-29T06:42:42;30.40;52.50
27072;DHT22;14613;46.308;25.288;2023-05-29T06:45:11;30.70;52.30
27072;DHT22;14613;46.308;25.288;2023-05-29T06:47:41;30.90;52.10
27072;DHT22;14613;46.308;25.288;2023-05-29T06:50:08;31.20;51.80
27072;DHT22;14613;46.308;25.288;2023-05-29T06:52:34;31.30;51.40
27072;DHT22;14613;46.308;25.288;2023-05-29T06:55:00;31.50;50.90
27072;DHT22;14613;46.308;25.288;2023-05-29T06:57:26;31.60;50.50
27072;DHT22;14613;46.308;25.288;2023-05-29T06:59:52;31.60;50.60
27072;DHT22;14613;46.308;25.288;2023-05-29T07:02:18;31.80;50.50
27072;DHT22;14613;46.308;25.288;2023-05-29T07:04:43;32.00;50.10
27072;DHT22;14613;46.308;25.288;2023-05-29T07:07:09;32.10;49.90
27072;DHT22;14613;46.308;25.288;2023-05-29T07:09:35;32.20;49.40
27072;DHT22;14613;46.308;25.288;2023-05-29T07:12:01;32.10;49.00
27072;DHT22;14613;46.308;25.288;2023-05-29T07:14:26;32.10;49.20
27072;DHT22;14613;46.308;25.288;2023-05-29T07:16:52;32.20;49.30
27072;DHT22;14613;46.308;25.288;2023-05-29T07:19:18;32.30;49.30
27072;DHT22;14613;46.308;25.288;2023-05-29T07:21:44;32.40;49.30
27072;DHT22;14613;46.308;25.288;2023-05-29T07:24:09;32.50;48.60
27072;DHT22;14613;46.308;25.288;2023-05-29T07:26:35;32.20;48.20
27072;DHT22;14613;46.308;25.288;2023-05-29T07:29:01;31.80;48.20
27072;DHT22;14613;46.308;25.288;2023-05-29T07:31:26;31.30;48.70
27072;DHT22;14613;46.308;25.288;2023-05-29T07:33:54;31.10;48.90
27072;DHT22;14613;46.308;25.288;2023-05-29T07:36:20;30.90;49.10
27072;DHT22;14613;46.308;25.288;2023-05-29T07:38:46;30.90;49.10
27072;DHT22;14613;46.308;25.288;2023-05-29T07:41:12;30.70;48.60
27072;DHT22;14613;46.308;25.288;2023-05-29T07:43:40;30.50;48.80
27072;DHT22;14613;46.308;25.288;2023-05-29T07:46:06;30.60;48.90
27072;DHT22;14613;46.308;25.288;2023-05-29T07:48:32;30.40;48.30
27072;DHT22;14613;46.308;25.288;2023-05-29T07:50:58;30.20;48.30
27072;DHT22;14613;46.308;25.288;2023-05-29T07:53:24;30.00;47.90
27072;DHT22;14613;46.308;25.288;2023-05-29T07:55:49;29.40;47.70
27072;DHT22;14613;46.308;25.288;2023-05-29T07:58:15;29.00;48.00
27072;DHT22;14613;46.308;25.288;2023-05-29T08:00:44;28.90;47.90
27072;DHT22;14613;46.308;25.288;2023-05-29T08:03:09;28.80;48.10
27072;DHT22;14613;46.308;25.288;2023-05-29T08:05:35;28.80;48.10
27072;DHT22;14613;46.308;25.288;2023-05-29T08:08:01;28.70;47.70
27072;DHT22;14613;46.308;25.288;2023-05-29T08:10:26;28.50;48.10
27072;DHT22;14613;46.308;25.288;2023-05-29T08:12:52;28.40;47.80
27072;DHT22;14613;46.308;25.288;2023-05-29T08:15:19;28.20;47.60
27072;DHT22;14613;46.308;25.288;2023-05-29T08:17:45;27.70;47.70
27072;DHT22;14613;46.308;25.288;2023-05-29T08:20:11;27.20;48.10
27072;DHT22;14613;46.308;25.288;2023-05-29T08:22:36;26.90;48.60
27072;DHT22;14613;46.308;25.288;2023-05-29T08:25:02;26.60;48.90
27072;DHT22;14613;46.308;25.288;2023-05-29T08:27:28;26.20;49.00
27072;DHT22;14613;46.308;25.288;2023-05-29T08:29:54;26.00;49.40
27072;DHT22;14613;46.308;25.288;2023-05-29T08:32:20;25.70;49.60
27072;DHT22;14613;46.308;25.288;2023-05-29T08:34:46;25.40;49.80
27072;DHT22;14613;46.308;25.288;2023-05-29T08:37:12;25.20;50.20
27072;DHT22;14613;46.308;25.288;2023-05-29T08:39:38;25.00;50.40
27072;DHT22;14613;46.308;25.288;2023-05-29T08:42:10;25.00;50.70
27072;DHT22;14613;46.308;25.288;2023-05-29T08:44:40;25.00;50.70
27072;DHT22;14613;46.308;25.288;2023-05-29T08:47:07;24.90;50.70
27072;DHT22;14613;46.308;25.288;2023-05-29T08:49:42;24.90;50.90
27072;DHT22;14613;46.308;25.288;2023-05-29T08:52:21;24.90;50.90
27072;DHT22;14613;46.308;25.288;2023-05-29T08:54:47;24.90;50.90
27072;DHT22;14613;46.308;25.288;2023-05-29T08:57:14;25.00;51.00
27072;DHT22;14613;46.308;25.288;2023-05-29T08:59:42;25.00;50.90
27072;DHT22;14613;46.308;25.288;2023-05-29T09:02:10;24.90;50.90
27072;DHT22;14613;46.308;25.288;2023-05-29T09:04:37;25.00;51.10
27072;DHT22;14613;46.308;25.288;2023-05-29T09:07:03;25.10;51.20
27072;DHT22;14613;46.308;25.288;2023-05-29T09:09:32;25.10;51.10
27072;DHT22;14613;46.308;25.288;2023-05-29T09:11:58;25.20;51.00
27072;DHT22;14613;46.308;25.288;2023-05-29T09:14:34;25.30;51.10
27072;DHT22;14613;46.308;25.288;2023-05-29T09:17:01;25.40;51.10
27072;DHT22;14613;46.308;25.288;2023-05-29T09:19:28;25.40;51.00
27072;DHT22;14613;46.308;25.288;2023-05-29T09:22:10;25.50;51.70
27072;DHT22;14613;46.308;25.288;2023-05-29T09:24:36;25.80;51.10
27072;DHT22;14613;46.308;25.288;2023-05-29T09:27:03;26.10;50.60
27072;DHT22;14613;46.308;25.288;2023-05-29T09:29:33;26.40;50.40
27072;DHT22;14613;46.308;25.288;2023-05-29T09:31:59;26.90;50.40
27072;DHT22;14613;46.308;25.288;2023-05-29T09:34:26;27.40;50.10
27072;DHT22;14613;46.308;25.288;2023-05-29T09:36:53;27.80;49.40
27072;DHT22;14613;46.308;25.288;2023-05-29T09:39:19;28.00;48.80
27072;DHT22;14613;46.308;25.288;2023-05-29T09:41:45;28.20;48.80
27072;DHT22;14613;46.308;25.288;2023-05-29T09:44:15;28.30;48.30
27072;DHT22;14613;46.308;25.288;2023-05-29T09:46:41;28.20;48.10
27072;DHT22;14613;46.308;25.288;2023-05-29T09:49:12;28.10;48.10
27072;DHT22;14613;46.308;25.288;2023-05-29T09:51:42;28.20;47.90
27072;DHT22;14613;46.308;25.288;2023-05-29T09:56:41;28.70;47.60
27072;DHT22;14613;46.308;25.288;2023-05-29T09:59:11;28.70;46.80
27072;DHT22;14613;46.308;25.288;2023-05-29T10:01:40;28.40;46.60
27072;DHT22;14613;46.308;25.288;2023-05-29T10:04:10;28.20;46.60
27072;DHT22;14613;46.308;25.288;2023-05-29T10:06:37;28.00;46.80
27072;DHT22;14613;46.308;25.288;2023-05-29T10:09:06;27.70;47.00
27072;DHT22;14613;46.308;25.288;2023-05-29T10:11:35;27.50;47.20
27072;DHT22;14613;46.308;25.288;2023-05-29T10:14:03;27.30;47.40
27072;DHT22;14613;46.308;25.288;2023-05-29T10:16:32;27.40;47.60
27072;DHT22;14613;46.308;25.288;2023-05-29T10:19:01;27.60;47.50
27072;DHT22;14613;46.308;25.288;2023-05-29T10:21:33;27.80;47.20
27072;DHT22;14613;46.308;25.288;2023-05-29T10:24:04;28.10;47.00
27072;DHT22;14613;46.308;25.288;2023-05-29T10:26:38;28.40;47.00
27072;DHT22;14613;46.308;25.288;2023-05-29T10:35:06;29.10;45.80
27072;DHT22;14613;46.308;25.288;2023-05-29T10:37:47;29.30;45.40
27072;DHT22;14613;46.308;25.288;2023-05-29T10:40:15;29.10;44.60
27072;DHT22;14613;46.308;25.288;2023-05-29T10:42:43;28.70;44.30
27072;DHT22;14613;46.308;25.288;2023-05-29T10:45:09;28.40;44.50
27072;DHT22;14613;46.308;25.288;2023-05-29T10:47:38;28.30;44.80
27072;DHT22;14613;46.308;25.288;2023-05-29T10:50:05;28.40;44.80
27072;DHT22;14613;46.308;25.288;2023-05-29T10:52:34;28.30;44.50
27072;DHT22;14613;46.308;25.288;2023-05-29T10:55:01;28.30;45.00
27072;DHT22;14613;46.308;25.288;2023-05-29T10:57:29;28.60;45.20
27072;DHT22;14613;46.308;25.288;2023-05-29T11:00:08;28.80;44.70
27072;DHT22;14613;46.308;25.288;2023-05-29T11:02:40;28.90;44.70
27072;DHT22;14613;46.308;25.288;2023-05-29T11:05:26;29.10;44.70
27072;DHT22;14613;46.308;25.288;2023-05-29T11:07:55;29.20;44.30
27072;DHT22;14613;46.308;25.288;2023-05-29T11:10:43;29.20;44.20
27072;DHT22;14613;46.308;25.288;2023-05-29T11:13:09;29.40;44.40
27072;DHT22;14613;46.308;25.288;2023-05-29T11:15:36;29.70;44.30
27072;DHT22;14613;46.308;25.288;2023-05-29T11:18:07;29.80;43.80
27072;DHT22;14613;46.308;25.288;2023-05-29T11:20:43;29.70;43.10
27072;DHT22;14613;46.308;25.288;2023-05-29T11:23:18;29.40;43.10
27072;DHT22;14613;46.308;25.288;2023-05-29T11:25:46;29.40;43.50
27072;DHT22;14613;46.308;25.288;2023-05-29T11:28:13;29.40;43.40
27072;DHT22;14613;46.308;25.288;2023-05-29T11:30:46;29.30;43.40
27072;DHT22;14613;46.308;25.288;2023-05-29T11:33:32;29.10;43.30
27072;DHT22;14613;46.308;25.288;2023-05-29T11:36:00;29.00;42.90
27072;DHT22;14613;46.308;25.288;2023-05-29T11:38:27;28.70;42.90
27072;DHT22;14613;46.308;25.288;2023-05-29T11:40:56;28.60;43.10
27072;DHT22;14613;46.308;25.288;2023-05-29T11:43:24;28.50;43.40
27072;DHT22;14613;46.308;25.288;2023-05-29T11:45:50;28.70;43.60
27072;DHT22;14613;46.308;25.288;2023-05-29T11:48:16;28.80;42.90
27072;DHT22;14613;46.308;25.288;2023-05-29T11:50:42;28.90;43.10
27072;DHT22;14613;46.308;25.288;2023-05-29T11:53:09;29.00;42.80
27072;DHT22;14613;46.308;25.288;2023-05-29T11:55:36;29.00;42.70
27072;DHT22;14613;46.308;25.288;2023-05-29T11:58:05;29.00;42.70
27072;DHT22;14613;46.308;25.288;2023-05-29T12:00:36;29.00;42.60
27072;DHT22;14613;46.308;25.288;2023-05-29T12:03:03;29.10;42.70
27072;DHT22;14613;46.308;25.288;2023-05-29T12:05:43;29.10;42.70
27072;DHT22;14613;46.308;25.288;2023-05-29T12:08:09;29.20;42.60
27072;DHT22;14613;46.308;25.288;2023-05-29T12:10:35;29.10;41.90
27072;DHT22;14613;46.308;25.288;2023-05-29T12:13:01;29.00;41.90
27072;DHT22;14613;46.308;25.288;2023-05-29T12:15:27;29.00;42.30
27072;DHT22;14613;46.308;25.288;2023-05-29T12:17:53;29.20;42.50
27072;DHT22;14613;46.308;25.288;2023-05-29T12:20:22;29.40;42.10
27072;DHT22;14613;46.308;25.288;2023-05-29T12:22:49;29.30;41.90
27072;DHT22;14613;46.308;25.288;2023-05-29T12:25:21;29.20;41.70
27072;DHT22;14613;46.308;25.288;2023-05-29T12:27:48;29.30;42.10
27072;DHT22;14613;46.308;25.288;2023-05-29T12:32:45;29.60;42.10
27072;DHT22;14613;46.308;25.288;2023-05-29T12:35:21;29.80;42.00
27072;DHT22;14613;46.308;25.288;2023-05-29T12:37:49;29.80;41.30
27072;DHT22;14613;46.308;25.288;2023-05-29T12:40:27;29.40;41.10
27072;DHT22;14613;46.308;25.288;2023-05-29T12:43:01;29.00;41.10
27072;DHT22;14613;46.308;25.288;2023-05-29T12:45:32;28.70;41.60
27072;DHT22;14613;46.308;25.288;2023-05-29T12:48:05;28.80;42.00
27072;DHT22;14613;46.308;25.288;2023-05-29T12:50:33;28.90;41.90
27072;DHT22;14613;46.308;25.288;2023-05-29T12:53:13;29.10;42.00
27072;DHT22;14613;46.308;25.288;2023-05-29T12:55:41;29.30;41.70
27072;DHT22;14613;46.308;25.288;2023-05-29T12:58:13;29.40;41.30
27072;DHT22;14613;46.308;25.288;2023-05-29T13:00:40;29.50;41.20
27072;DHT22;14613;46.308;25.288;2023-05-29T13:03:07;29.60;41.40
27072;DHT22;14613;46.308;25.288;2023-05-29T13:05:33;29.80;41.50
27072;DHT22;14613;46.308;25.288;2023-05-29T13:07:59;29.90;41.50
27072;DHT22;14613;46.308;25.288;2023-05-29T13:10:26;29.90;41.20
27072;DHT22;14613;46.308;25.288;2023-05-29T13:12:56;29.80;41.20
27072;DHT22;14613;46.308;25.288;2023-05-29T13:15:24;29.80;41.30
27072;DHT22;14613;46.308;25.288;2023-05-29T13:17:52;29.60;41.10
27072;DHT22;14613;46.308;25.288;2023-05-29T13:20:20;29.60;41.70
27072;DHT22;14613;46.308;25.288;2023-05-29T13:22:47;29.50;41.10
27072;DHT22;14613;46.308;25.288;2023-05-29T13:25:14;29.50;41.30
27072;DHT22;14613;46.308;25.288;2023-05-29T13:27:45;29.60;41.40
27072;DHT22;14613;46.308;25.288;2023-05-29T13:30:11;29.60;41.10
27072;DHT22;14613;46.308;25.288;2023-05-29T13:32:38;29.50;41.20
27072;DHT22;14613;46.308;25.288;2023-05-29T13:35:04;29.40;41.30
27072;DHT22;14613;46.308;25.288;2023-05-29T13:37:31;29.40;41.30
27072;DHT22;14613;46.308;25.288;2023-05-29T13:39:56;29.40;41.40
27072;DHT22;14613;46.308;25.288;2023-05-29T13:42:22;29.40;41.40
27072;DHT22;14613;46.308;25.288;2023-05-29T13:44:48;29.40;41.50
27072;DHT22;14613;46.308;25.288;2023-05-29T13:47:14;29.40;41.60
27072;DHT22;14613;46.308;25.288;2023-05-29T13:49:40;29.50;41.70
27072;DHT22;14613;46.308;25.288;2023-05-29T13:52:06;29.50;41.90
27072;DHT22;14613;46.308;25.288;2023-05-29T13:54:32;29.60;42.00
27072;DHT22;14613;46.308;25.288;2023-05-29T13:57:02;29.70;41.90
27072;DHT22;14613;46.308;25.288;2023-05-29T13:59:29;29.80;41.90
27072;DHT22;14613;46.308;25.288;2023-05-29T14:01:55;29.80;41.60
27072;DHT22;14613;46.308;25.288;2023-05-29T14:04:21;29.70;41.30
27072;DHT22;14613;46.308;25.288;2023-05-29T14:06:47;29.40;41.30
27072;DHT22;14613;46.308;25.288;2023-05-29T14:09:13;29.20;41.50
27072;DHT22;14613;46.308;25.288;2023-05-29T14:11:39;29.00;41.50
27072;DHT22;14613;46.308;25.288;2023-05-29T14:14:06;28.90;41.70
27072;DHT22;14613;46.308;25.288;2023-05-29T14:16:32;29.00;41.90
27072;DHT22;14613;46.308;25.288;2023-05-29T14:18:59;29.20;42.00
27072;DHT22;14613;46.308;25.288;2023-05-29T14:21:25;29.30;42.00
27072;DHT22;14613;46.308;25.288;2023-05-29T14:23:50;29.50;42.00
27072;DHT22;14613;46.308;25.288;2023-05-29T14:26:16;29.60;41.90
27072;DHT22;14613;46.308;25.288;2023-05-29T14:28:42;29.70;41.80
27072;DHT22;14613;46.308;25.288;2023-05-29T14:31:08;29.60;41.60
27072;DHT22;14613;46.308;25.288;2023-05-29T14:33:34;29.50;41.80
27072;DHT22;14613;46.308;25.288;2023-05-29T14:36:01;29.60;42.00
27072;DHT22;14613;46.308;25.288;2023-05-29T14:38:26;29.70;42.10
27072;DHT22;14613;46.308;25.288;2023-05-29T14:40:52;29.80;42.20
27072;DHT22;14613;46.308;25.288;2023-05-29T14:43:18;29.90;42.30
27072;DHT22;14613;46.308;25.288;2023-05-29T14:45:44;29.90;42.20
27072;DHT22;14613;46.308;25.288;2023-05-29T14:48:09;29.90;42.20
27072;DHT22;14613;46.308;25.288;2023-05-29T14:50:36;30.00;42.30
27072;DHT22;14613;46.308;25.288;2023-05-29T14:53:02;29.90;42.20
27072;DHT22;14613;46.308;25.288;2023-05-29T14:55:28;29.90;42.10
27072;DHT22;14613;46.308;25.288;2023-05-29T14:57:54;29.70;42.20
27072;DHT22;14613;46.308;25.288;2023-05-29T15:00:20;29.70;42.40
27072;DHT22;14613;46.308;25.288;2023-05-29T15:02:45;29.70;42.50
27072;DHT22;14613;46.308;25.288;2023-05-29T15:05:11;29.70;42.50
27072;DHT22;14613;46.308;25.288;2023-05-29T15:07:37;29.70;42.40
27072;DHT22;14613;46.308;25.288;2023-05-29T15:10:03;29.60;42.30
27072;DHT22;14613;46.308;25.288;2023-05-29T15:12:29;29.60;42.30
27072;DHT22;14613;46.308;25.288;2023-05-29T15:14:55;29.50;42.30
27072;DHT22;14613;46.308;25.288;2023-05-29T15:17:21;29.50;42.50
27072;DHT22;14613;46.308;25.288;2023-05-29T15:19:47;29.50;42.60
27072;DHT22;14613;46.308;25.288;2023-05-29T15:22:13;29.50;42.70
27072;DHT22;14613;46.308;25.288;2023-05-29T15:24:39;29.50;42.80
27072;DHT22;14613;46.308;25.288;2023-05-29T15:27:04;29.50;42.90
27072;DHT22;14613;46.308;25.288;2023-05-29T15:29:34;29.50;42.90
27072;DHT22;14613;46.308;25.288;2023-05-29T15:32:00;29.40;42.90
27072;DHT22;14613;46.308;25.288;2023-05-29T15:34:26;29.40;43.10